createdAt,value
2018-07-31T00:00:27.875Z,0.00
2018-07-31T00:01:27.867Z,0.00
2018-07-31T00:02:27.849Z,0.00
2018-07-31T00:03:27.934Z,0.00
2018-07-31T00:04:27.827Z,0.00
2018-07-31T00:05:27.824Z,0.00
2018-07-31T00:06:27.804Z,0.00
2018-07-31T00:07:27.803Z,0.00
2018-07-31T00:08:27.782Z,0.00
2018-07-31T00:09:27.802Z,0.00
2018-07-31T00:10:27.806Z,0.00
2018-07-31T00:11:27.754Z,0.00
2018-07-31T00:12:27.740Z,0.00
2018-07-31T00:13:27.731Z,0.00
2018-07-31T00:14:27.747Z,0.00
2018-07-31T00:15:27.722Z,0.00
2018-07-31T00:16:27.692Z,0.00
2018-07-31T00:17:27.688Z,0.00
2018-07-31T00:18:27.672Z,0.00
2018-07-31T00:19:27.668Z,0.00
2018-07-31T00:20:27.676Z,0.00
2018-07-31T00:21:27.641Z,0.00
2018-07-31T00:22:27.628Z,0.00
2018-07-31T00:23:27.619Z,0.00
2018-07-31T00:24:27.604Z,0.00
2018-07-31T00:25:27.626Z,0.00
2018-07-31T00:26:27.578Z,0.00
2018-07-31T00:27:27.577Z,0.00
2018-07-31T00:28:27.555Z,0.00
2018-07-31T00:29:27.554Z,0.00
2018-07-31T00:30:27.536Z,0.00
2018-07-31T00:31:27.552Z,0.00
2018-07-31T00:32:27.520Z,0.00
2018-07-31T00:33:27.499Z,0.00
2018-07-31T00:34:27.493Z,0.00
2018-07-31T00:35:27.485Z,0.00
2018-07-31T00:36:27.498Z,0.00
2018-07-31T00:37:27.462Z,0.00
2018-07-31T00:38:27.443Z,0.00
2018-07-31T00:39:27.442Z,0.00
2018-07-31T00:40:27.427Z,0.00
2018-07-31T00:41:27.419Z,0.00
2018-07-31T00:42:27.433Z,0.00
2018-07-31T00:43:27.394Z,0.00
2018-07-31T00:44:27.379Z,0.00
2018-07-31T00:45:27.372Z,0.00
2018-07-31T00:46:27.358Z,0.00
2018-07-31T00:47:27.367Z,0.00
2018-07-31T00:48:27.335Z,0.00
2018-07-31T00:49:27.325Z,0.00
2018-07-31T00:50:27.310Z,0.00
2018-07-31T00:51:27.302Z,0.00
2018-07-31T00:52:27.310Z,0.00
2018-07-31T00:53:27.278Z,0.00
2018-07-31T00:54:27.269Z,0.00
2018-07-31T00:55:27.250Z,0.00
2018-07-31T00:56:27.248Z,0.00
2018-07-31T00:57:27.270Z,0.00
2018-07-31T00:58:27.216Z,0.00
2018-07-31T00:59:27.213Z,0.00
2018-07-31T01:00:27.196Z,0.00
2018-07-31T01:01:27.190Z,0.00
2018-07-31T01:02:27.178Z,0.00
2018-07-31T01:03:27.185Z,0.00
2018-07-31T01:04:27.158Z,0.00
2018-07-31T01:05:27.136Z,0.00
2018-07-31T01:06:27.132Z,0.00
2018-07-31T01:07:27.140Z,0.00
2018-07-31T01:08:27.107Z,0.00
2018-07-31T01:09:27.100Z,0.00
2018-07-31T01:10:27.078Z,0.00
2018-07-31T01:11:27.075Z,0.00
2018-07-31T01:12:27.081Z,0.00
2018-07-31T01:13:27.052Z,0.00
2018-07-31T01:14:27.038Z,0.00
2018-07-31T01:15:27.028Z,0.00
2018-07-31T01:16:27.013Z,0.00
2018-07-31T01:17:27.027Z,0.00
2018-07-31T01:18:26.988Z,0.00
2018-07-31T01:19:26.982Z,0.00
2018-07-31T01:20:26.964Z,0.00
2018-07-31T01:21:26.960Z,0.00
2018-07-31T01:22:26.976Z,0.00
2018-07-31T01:23:26.935Z,0.00
2018-07-31T01:24:26.919Z,0.00
2018-07-31T01:25:26.915Z,0.00
2018-07-31T01:26:26.900Z,0.00
2018-07-31T01:27:26.886Z,0.00
2018-07-31T01:28:26.906Z,0.00
2018-07-31T01:29:26.864Z,0.00
2018-07-31T01:30:26.844Z,0.00
2018-07-31T01:31:26.849Z,0.00
2018-07-31T01:32:26.822Z,0.00
2018-07-31T01:33:26.824Z,0.00
2018-07-31T01:34:26.840Z,0.00
2018-07-31T01:35:26.788Z,0.00
2018-07-31T01:36:26.779Z,0.00
2018-07-31T01:37:26.771Z,0.00
2018-07-31T01:38:26.753Z,0.00
2018-07-31T01:39:26.750Z,0.00
2018-07-31T01:40:26.760Z,0.00
2018-07-31T01:41:26.720Z,0.00
2018-07-31T01:42:26.706Z,0.00
2018-07-31T01:43:26.706Z,0.00
2018-07-31T01:44:26.688Z,0.00
2018-07-31T01:45:26.703Z,0.00
2018-07-31T01:46:26.668Z,0.00
2018-07-31T01:47:26.647Z,0.00
2018-07-31T01:48:26.641Z,0.00
2018-07-31T01:49:26.630Z,0.00
2018-07-31T01:50:26.617Z,0.00
2018-07-31T01:51:26.624Z,0.00
2018-07-31T01:52:26.601Z,0.00
2018-07-31T01:53:26.578Z,0.00
2018-07-31T01:54:26.571Z,0.00
2018-07-31T01:55:26.557Z,0.00
2018-07-31T01:56:26.566Z,0.00
2018-07-31T01:57:26.533Z,0.00
2018-07-31T01:58:26.525Z,0.00
2018-07-31T01:59:26.511Z,0.00
2018-07-31T02:00:26.498Z,0.00
2018-07-31T02:01:26.516Z,0.00
2018-07-31T02:02:26.474Z,0.00
2018-07-31T02:03:26.466Z,0.00
2018-07-31T02:04:26.457Z,0.00
2018-07-31T02:05:26.437Z,0.00
2018-07-31T02:06:26.455Z,0.00
2018-07-31T02:07:26.420Z,0.00
2018-07-31T02:08:26.413Z,0.00
2018-07-31T02:09:26.390Z,0.00
2018-07-31T02:10:26.384Z,0.00
2018-07-31T02:11:26.399Z,0.00
2018-07-31T02:12:26.355Z,0.00
2018-07-31T02:13:26.357Z,0.00
2018-07-31T02:14:26.334Z,0.00
2018-07-31T02:15:26.329Z,0.00
2018-07-31T02:16:26.336Z,0.00
2018-07-31T02:17:26.312Z,0.00
2018-07-31T02:18:26.290Z,0.00
2018-07-31T02:19:26.275Z,0.00
2018-07-31T02:20:26.265Z,0.00
2018-07-31T02:21:26.283Z,0.00
2018-07-31T02:22:26.240Z,0.00
2018-07-31T02:23:26.234Z,0.00
2018-07-31T02:24:26.224Z,0.00
2018-07-31T02:25:26.208Z,0.00
2018-07-31T02:26:26.225Z,0.00
2018-07-31T02:27:26.181Z,0.00
2018-07-31T02:28:26.256Z,0.00
2018-07-31T02:29:26.166Z,0.00
2018-07-31T02:30:26.149Z,0.00
2018-07-31T02:31:26.164Z,0.00
2018-07-31T02:32:26.126Z,0.00
2018-07-31T02:33:26.112Z,0.00
2018-07-31T02:34:26.102Z,0.00
2018-07-31T02:35:26.095Z,0.00
2018-07-31T02:36:26.100Z,0.00
2018-07-31T02:37:26.080Z,0.00
2018-07-31T02:38:26.063Z,0.00
2018-07-31T02:39:26.044Z,0.00
2018-07-31T02:40:26.041Z,0.00
2018-07-31T02:41:26.042Z,0.00
2018-07-31T02:42:26.007Z,0.00
2018-07-31T02:43:26.005Z,0.00
2018-07-31T02:44:25.990Z,0.00
2018-07-31T02:45:25.982Z,0.00
2018-07-31T02:46:25.995Z,0.00
2018-07-31T02:47:25.953Z,0.00
2018-07-31T02:48:25.938Z,0.00
2018-07-31T02:49:25.943Z,0.00
2018-07-31T02:50:25.923Z,0.00
2018-07-31T02:51:25.927Z,0.00
2018-07-31T02:52:25.902Z,0.00
2018-07-31T02:53:25.886Z,0.00
2018-07-31T02:54:25.871Z,0.00
2018-07-31T02:55:25.866Z,0.00
2018-07-31T02:56:25.867Z,0.00
2018-07-31T02:57:25.845Z,0.00
2018-07-31T02:58:25.833Z,0.00
2018-07-31T02:59:25.812Z,0.00
2018-07-31T03:00:25.830Z,0.00
2018-07-31T03:01:25.787Z,0.00
2018-07-31T03:02:25.779Z,0.00
2018-07-31T03:03:25.771Z,0.00
2018-07-31T03:04:25.760Z,0.00
2018-07-31T03:05:25.774Z,0.00
2018-07-31T03:06:25.732Z,0.00
2018-07-31T03:07:25.722Z,0.00
2018-07-31T03:08:25.705Z,0.00
2018-07-31T03:09:25.701Z,0.00
2018-07-31T03:10:25.691Z,0.00
2018-07-31T03:11:25.691Z,0.00
2018-07-31T03:12:25.663Z,0.00
2018-07-31T03:13:25.652Z,0.00
2018-07-31T03:14:25.640Z,0.00
2018-07-31T03:15:25.656Z,0.00
2018-07-31T03:16:25.617Z,0.00
2018-07-31T03:17:25.607Z,0.00
2018-07-31T03:18:25.596Z,0.00
2018-07-31T03:19:25.579Z,0.00
2018-07-31T03:20:25.598Z,0.00
2018-07-31T03:21:25.556Z,0.00
2018-07-31T03:22:25.545Z,0.00
2018-07-31T03:23:25.531Z,0.00
2018-07-31T03:24:25.522Z,0.00
2018-07-31T03:25:25.512Z,0.00
2018-07-31T03:26:25.517Z,0.00
2018-07-31T03:27:25.493Z,0.00
2018-07-31T03:28:25.474Z,0.00
2018-07-31T03:29:25.512Z,0.00
2018-07-31T03:30:25.461Z,0.00
2018-07-31T03:31:25.468Z,0.00
2018-07-31T03:32:25.434Z,0.00
2018-07-31T03:33:25.413Z,0.00
2018-07-31T03:34:25.408Z,0.00
2018-07-31T03:35:25.388Z,0.00
2018-07-31T03:36:25.380Z,0.00
2018-07-31T03:37:25.392Z,0.00
2018-07-31T03:38:25.356Z,0.00
2018-07-31T03:39:25.346Z,0.00
2018-07-31T03:40:25.331Z,0.00
2018-07-31T03:41:25.327Z,0.00
2018-07-31T03:42:25.339Z,0.00
2018-07-31T03:43:25.301Z,5.62
2018-07-31T03:44:25.287Z,5.62
2018-07-31T03:45:25.279Z,5.62
2018-07-31T03:46:25.267Z,5.62
2018-07-31T03:47:25.252Z,5.62
2018-07-31T03:48:25.266Z,5.62
2018-07-31T03:49:25.231Z,5.62
2018-07-31T03:50:25.215Z,5.62
2018-07-31T03:51:25.212Z,11.25
2018-07-31T03:52:25.193Z,11.25
2018-07-31T03:53:25.206Z,11.25
2018-07-31T03:54:25.176Z,11.25
2018-07-31T03:55:25.165Z,11.25
2018-07-31T03:56:25.169Z,16.88
2018-07-31T03:57:25.139Z,16.88
2018-07-31T03:58:25.155Z,16.88
2018-07-31T03:59:25.114Z,16.88
2018-07-31T04:00:25.097Z,22.50
2018-07-31T04:01:25.093Z,22.50
2018-07-31T04:02:25.078Z,28.12
2018-07-31T04:03:25.068Z,28.12
2018-07-31T04:04:25.093Z,33.75
2018-07-31T04:05:25.097Z,33.75
2018-07-31T04:06:25.035Z,33.75
2018-07-31T04:07:25.015Z,33.75
2018-07-31T04:08:25.014Z,33.75
2018-07-31T04:09:24.997Z,33.75
2018-07-31T04:10:25.015Z,39.38
2018-07-31T04:11:24.972Z,39.38
2018-07-31T04:12:24.962Z,39.38
2018-07-31T04:13:24.946Z,39.38
2018-07-31T04:14:24.942Z,39.38
2018-07-31T04:15:24.927Z,45.00
2018-07-31T04:16:24.935Z,45.00
2018-07-31T04:17:24.904Z,45.00
2018-07-31T04:18:24.892Z,45.00
2018-07-31T04:19:24.877Z,50.62
2018-07-31T04:20:24.868Z,50.62
2018-07-31T04:21:24.881Z,50.62
2018-07-31T04:22:24.844Z,56.25
2018-07-31T04:23:24.854Z,56.25
2018-07-31T04:24:24.842Z,56.25
2018-07-31T04:25:24.813Z,56.25
2018-07-31T04:26:24.827Z,61.88
2018-07-31T04:27:24.781Z,61.88
2018-07-31T04:28:24.778Z,61.88
2018-07-31T04:29:24.759Z,67.50
2018-07-31T04:30:24.758Z,67.50
2018-07-31T04:31:24.736Z,67.50
2018-07-31T04:32:24.760Z,73.12
2018-07-31T04:33:24.724Z,73.12
2018-07-31T04:34:24.702Z,73.12
2018-07-31T04:35:24.695Z,78.75
2018-07-31T04:36:24.686Z,78.75
2018-07-31T04:37:24.665Z,78.75
2018-07-31T04:38:24.685Z,84.38
2018-07-31T04:39:24.642Z,84.38
2018-07-31T04:40:24.640Z,90.00
2018-07-31T04:41:24.631Z,95.62
2018-07-31T04:42:24.661Z,95.62
2018-07-31T04:43:24.628Z,101.25
2018-07-31T04:44:24.593Z,106.88
2018-07-31T04:45:24.576Z,112.50
2018-07-31T04:46:24.564Z,118.12
2018-07-31T04:47:24.560Z,123.75
2018-07-31T04:48:24.563Z,129.38
2018-07-31T04:49:24.538Z,135.00
2018-07-31T04:50:24.571Z,135.00
2018-07-31T04:51:24.506Z,140.62
2018-07-31T04:52:24.497Z,146.25
2018-07-31T04:53:24.517Z,151.88
2018-07-31T04:54:24.472Z,151.88
2018-07-31T04:55:24.481Z,157.50
2018-07-31T04:56:24.447Z,163.12
2018-07-31T04:57:24.445Z,168.75
2018-07-31T04:58:24.444Z,168.75
2018-07-31T04:59:24.440Z,168.75
2018-07-31T05:00:24.417Z,168.75
2018-07-31T05:01:24.388Z,174.38
2018-07-31T05:02:24.374Z,174.38
2018-07-31T05:03:24.376Z,180.00
2018-07-31T05:04:24.378Z,180.00
2018-07-31T05:05:24.392Z,180.00
2018-07-31T05:06:24.362Z,180.00
2018-07-31T05:07:24.316Z,180.00
2018-07-31T05:08:24.316Z,180.00
2018-07-31T05:09:24.299Z,174.38
2018-07-31T05:10:24.309Z,174.38
2018-07-31T05:11:24.279Z,174.38
2018-07-31T05:12:24.262Z,168.75
2018-07-31T05:13:24.254Z,163.12
2018-07-31T05:14:24.240Z,168.75
2018-07-31T05:15:24.260Z,174.38
2018-07-31T05:16:24.217Z,151.88
2018-07-31T05:17:24.216Z,174.38
2018-07-31T05:18:24.256Z,174.38
2018-07-31T05:19:24.177Z,174.38
2018-07-31T05:20:24.175Z,180.00
2018-07-31T05:21:24.187Z,180.00
2018-07-31T05:22:24.145Z,180.00
2018-07-31T05:23:24.150Z,180.00
2018-07-31T05:24:24.120Z,180.00
2018-07-31T05:25:24.118Z,180.00
2018-07-31T05:26:24.105Z,180.00
2018-07-31T05:27:24.123Z,180.00
2018-07-31T05:28:24.081Z,174.38
2018-07-31T05:29:24.073Z,180.00
2018-07-31T05:30:24.055Z,180.00
2018-07-31T05:31:24.039Z,163.12
2018-07-31T05:32:24.087Z,180.00
2018-07-31T05:33:24.017Z,180.00
2018-07-31T05:34:24.008Z,180.00
2018-07-31T05:35:24.004Z,185.62
2018-07-31T05:36:23.985Z,191.25
2018-07-31T05:37:23.982Z,196.88
2018-07-31T05:38:23.991Z,202.50
2018-07-31T05:39:23.949Z,213.75
2018-07-31T05:40:23.951Z,219.38
2018-07-31T05:41:23.927Z,225.00
2018-07-31T05:42:23.924Z,230.62
2018-07-31T05:43:23.934Z,236.25
2018-07-31T05:44:23.900Z,225.00
2018-07-31T05:45:23.887Z,225.00
2018-07-31T05:46:23.875Z,230.62
2018-07-31T05:47:23.869Z,230.62
2018-07-31T05:48:23.852Z,219.38
2018-07-31T05:49:23.870Z,219.38
2018-07-31T05:50:23.833Z,225.00
2018-07-31T05:51:23.818Z,236.25
2018-07-31T05:52:23.810Z,247.50
2018-07-31T05:53:23.789Z,241.88
2018-07-31T05:54:23.779Z,241.88
2018-07-31T05:55:23.799Z,236.25
2018-07-31T05:56:23.760Z,230.62
2018-07-31T05:57:23.763Z,236.25
2018-07-31T05:58:23.770Z,247.50
2018-07-31T05:59:23.771Z,253.12
2018-07-31T06:00:23.865Z,258.75
2018-07-31T06:01:23.705Z,258.75
2018-07-31T06:02:23.696Z,264.38
2018-07-31T06:03:23.680Z,264.38
2018-07-31T06:04:23.728Z,258.75
2018-07-31T06:05:23.677Z,281.25
2018-07-31T06:06:23.709Z,281.25
2018-07-31T06:07:23.641Z,281.25
2018-07-31T06:08:23.627Z,275.62
2018-07-31T06:09:23.663Z,264.38
2018-07-31T06:10:23.640Z,258.75
2018-07-31T06:11:23.671Z,281.25
2018-07-31T06:12:23.608Z,286.88
2018-07-31T06:13:23.569Z,275.62
2018-07-31T06:14:23.554Z,292.50
2018-07-31T06:15:23.600Z,320.62
2018-07-31T06:16:23.563Z,331.88
2018-07-31T06:17:23.524Z,337.50
2018-07-31T06:18:23.511Z,337.50
2018-07-31T06:19:23.577Z,354.38
2018-07-31T06:20:23.547Z,376.88
2018-07-31T06:21:23.473Z,393.75
2018-07-31T06:22:23.484Z,416.25
2018-07-31T06:23:23.459Z,450.00
2018-07-31T06:24:23.436Z,483.75
2018-07-31T06:25:23.442Z,495.00
2018-07-31T06:26:23.429Z,540.00
2018-07-31T06:27:23.427Z,961.88
2018-07-31T06:28:23.403Z,2283.75
2018-07-31T06:29:23.451Z,2745.00
2018-07-31T06:30:23.414Z,1991.25
2018-07-31T06:31:23.414Z,1440.00
2018-07-31T06:32:23.472Z,1333.12
2018-07-31T06:33:23.333Z,1411.88
2018-07-31T06:34:23.330Z,1698.75
2018-07-31T06:35:23.321Z,2137.50
2018-07-31T06:36:23.342Z,1738.12
2018-07-31T06:37:23.348Z,1153.12
2018-07-31T06:38:23.308Z,1496.25
2018-07-31T06:39:23.265Z,1771.88
2018-07-31T06:40:23.281Z,1676.25
2018-07-31T06:41:23.248Z,1648.12
2018-07-31T06:42:23.232Z,2013.75
2018-07-31T06:43:23.259Z,2458.12
2018-07-31T06:44:23.215Z,2407.50
2018-07-31T06:45:23.201Z,1766.25
2018-07-31T06:46:23.194Z,1175.62
2018-07-31T06:47:23.180Z,1074.38
2018-07-31T06:48:23.201Z,1620.00
2018-07-31T06:49:23.167Z,1732.50
2018-07-31T06:50:23.148Z,1260.00
2018-07-31T06:51:23.136Z,821.25
2018-07-31T06:52:23.128Z,720.00
2018-07-31T06:53:23.107Z,916.88
2018-07-31T06:54:23.128Z,1046.25
2018-07-31T06:55:23.089Z,765.00
2018-07-31T06:56:23.077Z,933.75
2018-07-31T06:57:23.073Z,686.25
2018-07-31T06:58:23.054Z,579.38
2018-07-31T06:59:23.079Z,562.50
2018-07-31T07:00:23.041Z,573.75
2018-07-31T07:01:23.020Z,607.50
2018-07-31T07:02:23.016Z,573.75
2018-07-31T07:03:22.998Z,545.62
2018-07-31T07:04:22.987Z,562.50
2018-07-31T07:05:23.006Z,579.38
2018-07-31T07:06:22.963Z,573.75
2018-07-31T07:07:22.954Z,573.75
2018-07-31T07:08:22.940Z,590.62
2018-07-31T07:09:23.003Z,607.50
2018-07-31T07:10:22.921Z,624.38
2018-07-31T07:11:22.937Z,613.12
2018-07-31T07:12:22.897Z,680.62
2018-07-31T07:13:22.888Z,832.50
2018-07-31T07:14:22.879Z,911.25
2018-07-31T07:15:22.876Z,585.00
2018-07-31T07:16:22.889Z,568.12
2018-07-31T07:17:22.846Z,585.00
2018-07-31T07:18:22.850Z,601.88
2018-07-31T07:19:22.820Z,658.12
2018-07-31T07:20:22.805Z,635.62
2018-07-31T07:21:22.798Z,652.50
2018-07-31T07:22:22.809Z,742.50
2018-07-31T07:23:22.773Z,731.25
2018-07-31T07:24:22.766Z,1012.50
2018-07-31T07:25:22.757Z,1091.25
2018-07-31T07:26:22.745Z,1260.00
2018-07-31T07:27:22.763Z,1215.00
2018-07-31T07:28:22.722Z,1383.75
2018-07-31T07:29:22.708Z,1906.88
2018-07-31T07:30:22.699Z,1018.12
2018-07-31T07:31:22.689Z,1350.00
2018-07-31T07:32:22.675Z,1243.12
2018-07-31T07:33:22.691Z,1704.38
2018-07-31T07:34:22.658Z,1873.12
2018-07-31T07:35:22.642Z,2671.88
2018-07-31T07:36:22.630Z,2818.12
2018-07-31T07:37:22.616Z,2885.62
2018-07-31T07:38:22.640Z,3476.25
2018-07-31T07:39:22.603Z,2868.75
2018-07-31T07:40:22.582Z,1946.25
2018-07-31T07:41:22.580Z,2238.75
2018-07-31T07:42:22.565Z,2238.75
2018-07-31T07:43:22.554Z,2610.00
2018-07-31T07:44:22.563Z,2525.62
2018-07-31T07:45:22.532Z,3133.12
2018-07-31T07:46:22.523Z,3526.88
2018-07-31T07:47:22.508Z,2964.38
2018-07-31T07:48:22.521Z,2565.00
2018-07-31T07:49:22.522Z,2143.12
2018-07-31T07:50:22.472Z,2385.00
2018-07-31T07:51:22.470Z,2115.00
2018-07-31T07:52:22.459Z,2345.62
2018-07-31T07:53:22.450Z,1597.50
2018-07-31T07:54:22.548Z,2188.12
2018-07-31T07:55:22.419Z,2503.12
2018-07-31T07:56:22.416Z,1141.88
2018-07-31T07:57:22.396Z,3746.25
2018-07-31T07:58:22.387Z,4320.00
2018-07-31T07:59:22.384Z,3971.25
2018-07-31T08:00:22.394Z,1580.62
2018-07-31T08:01:22.357Z,1828.12
2018-07-31T08:02:22.351Z,1552.50
2018-07-31T08:03:22.333Z,1575.00
2018-07-31T08:04:22.325Z,1929.38
2018-07-31T08:05:22.340Z,2210.62
2018-07-31T08:06:22.309Z,2120.62
2018-07-31T08:07:22.298Z,2092.50
2018-07-31T08:08:22.282Z,1873.12
2018-07-31T08:09:22.276Z,1951.88
2018-07-31T08:10:22.310Z,2098.12
2018-07-31T08:11:22.257Z,2075.62
2018-07-31T08:12:22.244Z,2092.50
2018-07-31T08:13:22.236Z,2160.00
2018-07-31T08:14:22.218Z,2154.38
2018-07-31T08:15:22.213Z,1305.00
2018-07-31T08:16:22.229Z,1445.62
2018-07-31T08:17:22.190Z,1507.50
2018-07-31T08:18:22.181Z,1715.62
2018-07-31T08:19:22.186Z,1890.00
2018-07-31T08:20:22.178Z,1316.25
2018-07-31T08:21:22.183Z,843.75
2018-07-31T08:22:22.131Z,1867.50
2018-07-31T08:23:22.136Z,1884.38
2018-07-31T08:24:22.114Z,2317.50
2018-07-31T08:25:22.111Z,2272.50
2018-07-31T08:26:22.094Z,2278.12
2018-07-31T08:27:22.114Z,2244.38
2018-07-31T08:28:22.080Z,2227.50
2018-07-31T08:29:22.067Z,2323.12
2018-07-31T08:30:22.055Z,2368.12
2018-07-31T08:31:22.044Z,1957.50
2018-07-31T08:32:22.037Z,1901.25
2018-07-31T08:33:22.133Z,1755.00
2018-07-31T08:34:22.058Z,2486.25
2018-07-31T08:35:22.009Z,2525.62
2018-07-31T08:36:22.878Z,2542.50
2018-07-31T08:37:22.001Z,2621.25
2018-07-31T08:38:22.060Z,2728.12
2018-07-31T08:39:21.966Z,2784.38
2018-07-31T08:40:22.002Z,2671.88
2018-07-31T08:41:21.952Z,1918.12
2018-07-31T08:42:21.937Z,2745.00
2018-07-31T08:43:21.953Z,2851.88
2018-07-31T08:44:21.916Z,2823.75
2018-07-31T08:45:21.905Z,2266.88
2018-07-31T08:46:21.898Z,2773.12
2018-07-31T08:47:21.890Z,2812.50
2018-07-31T08:48:21.884Z,2784.38
2018-07-31T08:49:21.885Z,2941.88
2018-07-31T08:50:21.859Z,2536.88
2018-07-31T08:51:21.846Z,2070.00
2018-07-31T08:52:21.834Z,2058.75
2018-07-31T08:53:21.832Z,1839.38
2018-07-31T08:54:21.844Z,2300.62
2018-07-31T08:55:21.812Z,2446.88
2018-07-31T08:56:21.795Z,2407.50
2018-07-31T08:57:21.798Z,2469.38
2018-07-31T08:58:21.784Z,2835.00
2018-07-31T08:59:21.767Z,2165.62
2018-07-31T09:00:21.799Z,1968.75
2018-07-31T09:01:21.748Z,1018.12
2018-07-31T09:02:21.747Z,641.25
2018-07-31T09:03:21.728Z,669.38
2018-07-31T09:04:21.721Z,725.62
2018-07-31T09:05:21.709Z,1018.12
2018-07-31T09:06:21.720Z,1158.75
2018-07-31T09:07:21.694Z,1507.50
2018-07-31T09:08:21.745Z,1012.50
2018-07-31T09:09:21.671Z,1406.25
2018-07-31T09:10:21.658Z,2773.12
2018-07-31T09:11:21.684Z,2761.88
2018-07-31T09:12:21.642Z,2986.88
2018-07-31T09:13:21.626Z,2784.38
2018-07-31T09:14:21.621Z,2205.00
2018-07-31T09:15:21.607Z,1440.00
2018-07-31T09:16:21.593Z,922.50
2018-07-31T09:17:21.610Z,1113.75
2018-07-31T09:18:21.575Z,1513.12
2018-07-31T09:19:21.571Z,894.38
2018-07-31T09:20:21.555Z,855.00
2018-07-31T09:21:21.544Z,821.25
2018-07-31T09:22:21.572Z,832.50
2018-07-31T09:23:21.724Z,765.00
2018-07-31T09:24:21.576Z,759.38
2018-07-31T09:25:21.507Z,793.12
2018-07-31T09:26:21.495Z,950.62
2018-07-31T09:27:21.483Z,1018.12
2018-07-31T09:28:21.501Z,1248.75
2018-07-31T09:29:21.468Z,1085.62
2018-07-31T09:30:21.501Z,1631.25
2018-07-31T09:31:21.445Z,1563.75
2018-07-31T09:32:21.437Z,2272.50
2018-07-31T09:33:21.441Z,2424.38
2018-07-31T09:34:21.407Z,2396.25
2018-07-31T09:35:21.406Z,2491.88
2018-07-31T09:36:21.388Z,2266.88
2018-07-31T09:37:21.387Z,2503.12
2018-07-31T09:38:21.415Z,2463.75
2018-07-31T09:39:21.358Z,1125.00
2018-07-31T09:40:21.358Z,2396.25
2018-07-31T09:41:21.339Z,1912.50
2018-07-31T09:42:21.332Z,2385.00
2018-07-31T09:43:21.327Z,2131.88
2018-07-31T09:44:21.351Z,1968.75
2018-07-31T09:45:21.311Z,1873.12
2018-07-31T09:46:21.298Z,2300.62
2018-07-31T09:47:21.285Z,2283.75
2018-07-31T09:48:21.279Z,2272.50
2018-07-31T09:49:21.267Z,1164.38
2018-07-31T09:50:21.281Z,1501.88
2018-07-31T09:51:21.251Z,1563.75
2018-07-31T09:52:21.239Z,2120.62
2018-07-31T09:53:21.233Z,2025.00
2018-07-31T09:54:21.224Z,1687.50
2018-07-31T09:55:21.243Z,1400.62
2018-07-31T09:56:21.206Z,1704.38
2018-07-31T09:57:21.195Z,1738.12
2018-07-31T09:58:21.183Z,2092.50
2018-07-31T09:59:21.182Z,2064.38
2018-07-31T10:00:21.165Z,1783.12
2018-07-31T10:01:21.196Z,1991.25
2018-07-31T10:02:21.154Z,1653.75
2018-07-31T10:03:21.137Z,1890.00
2018-07-31T10:04:21.140Z,1546.88
2018-07-31T10:05:21.128Z,1681.88
2018-07-31T10:06:21.117Z,1850.62
2018-07-31T10:07:21.131Z,1783.12
2018-07-31T10:08:21.093Z,1794.38
2018-07-31T10:09:21.094Z,1648.12
2018-07-31T10:10:21.083Z,1265.62
2018-07-31T10:11:21.080Z,928.12
2018-07-31T10:12:21.094Z,1203.75
2018-07-31T10:13:21.046Z,1766.25
2018-07-31T10:14:21.048Z,1417.50
2018-07-31T10:15:21.035Z,1552.50
2018-07-31T10:16:21.028Z,3054.38
2018-07-31T10:17:21.007Z,5754.38
2018-07-31T10:18:21.057Z,4888.12
2018-07-31T10:19:20.996Z,4831.88
2018-07-31T10:20:20.978Z,3780.00
2018-07-31T10:21:20.971Z,4359.38
2018-07-31T10:22:20.969Z,3538.12
2018-07-31T10:23:20.982Z,2160.00
2018-07-31T10:24:20.943Z,2289.38
2018-07-31T10:25:20.936Z,1485.00
2018-07-31T10:26:20.927Z,1237.50
2018-07-31T10:27:20.920Z,2250.00
2018-07-31T10:28:20.905Z,3363.75
2018-07-31T10:29:20.924Z,3133.12
2018-07-31T10:30:20.885Z,2677.50
2018-07-31T10:31:20.871Z,1659.38
2018-07-31T10:32:20.864Z,2255.62
2018-07-31T10:33:20.850Z,2289.38
2018-07-31T10:34:20.866Z,2368.12
2018-07-31T10:35:20.858Z,4235.62
2018-07-31T10:36:20.823Z,2829.38
2018-07-31T10:37:20.810Z,3195.00
2018-07-31T10:38:20.800Z,1383.75
2018-07-31T10:39:20.801Z,2210.62
2018-07-31T10:40:20.808Z,3442.50
2018-07-31T10:41:20.771Z,4010.62
2018-07-31T10:42:20.767Z,3684.38
2018-07-31T10:43:20.750Z,3701.25
2018-07-31T10:44:20.745Z,3082.50
2018-07-31T10:45:20.766Z,2385.00
2018-07-31T10:46:20.728Z,3926.25
2018-07-31T10:47:20.714Z,3903.75
2018-07-31T10:48:20.707Z,4173.75
2018-07-31T10:49:20.687Z,4348.12
2018-07-31T10:50:20.684Z,4584.38
2018-07-31T10:51:20.708Z,4595.62
2018-07-31T10:52:20.663Z,4522.50
2018-07-31T10:53:20.658Z,4764.38
2018-07-31T10:54:20.648Z,4927.50
2018-07-31T10:55:20.630Z,2463.75
2018-07-31T10:56:20.623Z,4629.38
2018-07-31T10:57:20.639Z,961.88
2018-07-31T10:58:20.641Z,1192.50
2018-07-31T10:59:20.638Z,2458.12
2018-07-31T11:00:20.646Z,1181.25
2018-07-31T11:01:20.572Z,4331.25
2018-07-31T11:02:20.589Z,1288.12
2018-07-31T11:03:20.560Z,933.75
2018-07-31T11:04:20.566Z,911.25
2018-07-31T11:05:20.540Z,4567.50
2018-07-31T11:06:20.586Z,4972.50
2018-07-31T11:07:20.542Z,4916.25
2018-07-31T11:08:20.505Z,4820.62
2018-07-31T11:09:20.491Z,4747.50
2018-07-31T11:10:20.513Z,4854.38
2018-07-31T11:11:20.473Z,5085.00
2018-07-31T11:12:20.467Z,5197.50
2018-07-31T11:13:20.547Z,5388.75
2018-07-31T11:14:20.444Z,5416.88
2018-07-31T11:15:20.436Z,5405.62
2018-07-31T11:16:20.424Z,4837.50
2018-07-31T11:17:20.417Z,5006.25
2018-07-31T11:18:20.401Z,4618.12
2018-07-31T11:19:20.427Z,4415.62
2018-07-31T11:20:20.381Z,961.88
2018-07-31T11:21:20.452Z,855.00
2018-07-31T11:22:20.362Z,720.00
2018-07-31T11:23:20.349Z,613.12
2018-07-31T11:24:20.344Z,590.62
2018-07-31T11:25:20.352Z,641.25
2018-07-31T11:26:20.319Z,731.25
2018-07-31T11:27:20.348Z,849.38
2018-07-31T11:28:20.297Z,849.38
2018-07-31T11:29:20.293Z,2385.00
2018-07-31T11:30:20.314Z,1918.12
2018-07-31T11:31:20.265Z,2362.50
2018-07-31T11:32:20.260Z,2272.50
2018-07-31T11:33:20.245Z,2317.50
2018-07-31T11:34:20.239Z,2390.62
2018-07-31T11:35:20.224Z,2705.62
2018-07-31T11:36:20.243Z,1856.25
2018-07-31T11:37:20.211Z,753.75
2018-07-31T11:38:20.193Z,1023.75
2018-07-31T11:39:20.185Z,731.25
2018-07-31T11:40:20.178Z,714.38
2018-07-31T11:41:20.170Z,691.88
2018-07-31T11:42:20.171Z,714.38
2018-07-31T11:43:20.147Z,720.00
2018-07-31T11:44:20.150Z,736.88
2018-07-31T11:45:20.119Z,776.25
2018-07-31T11:46:20.120Z,742.50
2018-07-31T11:47:20.119Z,736.88
2018-07-31T11:48:20.092Z,765.00
2018-07-31T11:49:20.081Z,765.00
2018-07-31T11:50:20.066Z,798.75
2018-07-31T11:51:20.053Z,821.25
2018-07-31T11:52:20.104Z,933.75
2018-07-31T11:53:20.031Z,871.88
2018-07-31T11:54:20.021Z,894.38
2018-07-31T11:55:20.019Z,939.38
2018-07-31T11:56:19.999Z,877.50
2018-07-31T11:57:19.992Z,714.38
2018-07-31T11:58:20.010Z,680.62
2018-07-31T11:59:19.967Z,630.00
2018-07-31T12:00:19.960Z,534.38
2018-07-31T12:01:19.953Z,680.62
2018-07-31T12:02:19.936Z,658.12
2018-07-31T12:03:19.961Z,646.88
2018-07-31T12:04:20.017Z,646.88
2018-07-31T12:05:19.907Z,652.50
2018-07-31T12:06:19.901Z,686.25
2018-07-31T12:07:19.890Z,748.12
2018-07-31T12:08:19.902Z,697.50
2018-07-31T12:09:19.869Z,630.00
2018-07-31T12:10:19.859Z,613.12
2018-07-31T12:11:19.840Z,607.50
2018-07-31T12:12:19.837Z,697.50
2018-07-31T12:13:19.823Z,630.00
2018-07-31T12:14:19.838Z,596.25
2018-07-31T12:15:19.803Z,573.75
2018-07-31T12:16:19.795Z,562.50
2018-07-31T12:17:19.777Z,556.88
2018-07-31T12:18:19.767Z,579.38
2018-07-31T12:19:19.785Z,618.75
2018-07-31T12:20:19.746Z,630.00
2018-07-31T12:21:19.739Z,641.25
2018-07-31T12:22:19.730Z,663.75
2018-07-31T12:23:19.709Z,641.25
2018-07-31T12:24:19.734Z,596.25
2018-07-31T12:25:19.693Z,556.88
2018-07-31T12:26:19.678Z,472.50
2018-07-31T12:27:19.677Z,585.00
2018-07-31T12:28:19.656Z,568.12
2018-07-31T12:29:19.653Z,568.12
2018-07-31T12:30:19.673Z,573.75
2018-07-31T12:31:19.631Z,579.38
2018-07-31T12:32:19.614Z,596.25
2018-07-31T12:33:19.610Z,601.88
2018-07-31T12:34:19.626Z,601.88
2018-07-31T12:35:19.584Z,596.25
2018-07-31T12:36:19.601Z,618.75